Time;durP1;ratioP1;P1;durP2;ratioP2;P2;SDS_P1;SDS_P2;PMS_P1;PMS_P2;Temp;Humidity;BMP_temperature;BMP_pressure;BME280_temperature;BME280_humidity;BME280_pressure;Samples;Min_cycle;Max_cycle;Signal;HPM_P1;HPM_P2
2021/05/12 00:01:19;;;;;;;;;;;;;;;13.75;56.79;99602.66;3522620;28;20432;-45
2021/05/12 00:03:00;;;;;;;;;;;;;;;13.74;56.56;99600.94;3523275;28;20308;-42
2021/05/12 00:04:41;;;;;;;;;;;;;;;13.72;56.48;99607.84;3510317;28;20384;-42
2021/05/12 00:06:22;;;;;;;;;;;;;;;13.69;57.19;99608.75;3519339;28;19935;-43
2021/05/12 00:08:05;;;;;;;;;;;;;;;13.66;57.43;99613.94;3523963;28;19935;-43
2021/05/12 00:09:46;;;;;;;;;;;;;;;13.64;57.23;99615.69;3522921;28;19996;-42
2021/05/12 00:11:27;;;;;;;;;;;;;;;13.62;57.43;99616.56;3523530;28;19978;-44
2021/05/12 00:13:08;;;;;;;;;;;;;;;13.61;57.42;99625.25;3520714;28;20300;-45
2021/05/12 00:14:50;;;;;;;;;;;;;;;13.56;57.93;99624.38;3515349;28;19927;-45
2021/05/12 00:16:31;;;;;;;;;;;;;;;13.53;57.74;99633.06;3524058;28;19928;-45
2021/05/12 00:18:17;;;;;;;;;;;;;;;13.50;57.58;99623.50;3523471;28;20014;-45
2021/05/12 00:20:00;;;;;;;;;;;;;;;13.46;57.55;99629.56;3526663;28;19974;-45
2021/05/12 00:21:45;;;;;;;;;;;;;;;13.42;57.93;99621.75;3524349;28;19970;-45
2021/05/12 00:23:38;;;;;;;;;;;;;;;13.37;57.96;99621.75;3525523;28;19931;-45
2021/05/12 00:25:20;;;;;;;;;;;;;;;13.33;58.22;99617.38;3512478;28;19951;-45
2021/05/12 00:27:02;;;;;;;;;;;;;;;13.28;58.15;99620.00;3522578;28;20053;-43
2021/05/12 00:28:43;;;;;;;;;;;;;;;13.26;58.48;99618.25;3525849;28;19982;-43
2021/05/12 00:30:24;;;;;;;;;;;;;;;13.19;58.31;99621.69;3525406;28;20317;-42
2021/05/12 00:32:06;;;;;;;;;;;;;;;13.12;58.57;99613.88;3525017;28;19993;-42
2021/05/12 00:33:47;;;;;;;;;;;;;;;13.06;59.02;99618.22;3525974;28;20427;-42
2021/05/12 00:35:28;;;;;;;;;;;;;;;12.99;58.37;99614.72;3525386;28;19928;-43
2021/05/12 00:37:09;;;;;;;;;;;;;;;12.93;58.30;99612.97;3526119;28;20377;-43
2021/05/12 00:38:51;;;;;;;;;;;;;;;12.87;58.55;99615.50;3525062;28;19931;-42
2021/05/12 00:40:32;;;;;;;;;;;;;;;12.82;58.11;99613.75;3525507;28;20405;-42
2021/05/12 00:42:13;;;;;;;;;;;;;;;12.75;58.26;99624.16;3525431;28;20304;-45
2021/05/12 00:43:54;;;;;;;;;;;;;;;12.67;57.96;99615.44;3525295;28;19928;-45
2021/05/12 00:45:36;;;;;;;;;;;;;;;12.58;58.08;99613.66;3525838;28;19928;-45
2021/05/12 00:47:23;;;;;;;;;;;;;;;12.50;58.35;99612.75;3524646;28;19931;-46
2021/05/12 00:49:05;;;;;;;;;;;;;;;12.44;57.84;99610.13;3526489;28;20005;-46
2021/05/12 00:50:46;;;;;;;;;;;;;;;12.40;57.66;99616.19;3525465;28;19931;-45
2021/05/12 00:52:27;;;;;;;;;;;;;;;12.37;56.97;99603.16;3526148;28;19931;-42
2021/05/12 00:54:09;;;;;;;;;;;;;;;12.32;57.78;99607.44;3526115;28;19935;-42
2021/05/12 00:55:50;;;;;;;;;;;;;;;12.27;56.86;99594.41;3524842;28;19996;-43
2021/05/12 00:57:33;;;;;;;;;;;;;;;12.22;57.05;99592.66;3526258;28;19967;-43
2021/05/12 00:59:14;;;;;;;;;;;;;;;12.17;57.16;99600.41;3524658;28;20309;-43
2021/05/12 01:00:56;;;;;;;;;;;;;;;12.12;57.04;99594.34;3525980;28;20385;-43
2021/05/12 01:02:37;;;;;;;;;;;;;;;12.10;57.15;99596.94;3524834;28;19931;-43
2021/05/12 01:04:18;;;;;;;;;;;;;;;12.06;57.03;99605.56;3526016;28;19975;-43
2021/05/12 01:06:00;;;;;;;;;;;;;;;12.01;56.95;99594.25;3525258;28;19935;-43
2021/05/12 01:07:41;;;;;;;;;;;;;;;11.98;57.40;99596.84;3524758;28;20372;-43
2021/05/12 01:09:23;;;;;;;;;;;;;;;11.90;57.63;99596.78;3525277;28;19974;-45
2021/05/12 01:11:04;;;;;;;;;;;;;;;11.86;57.67;99604.56;3524881;28;19967;-45
2021/05/12 01:12:45;;;;;;;;;;;;;;;11.83;57.30;99602.78;3525765;28;20419;-45
2021/05/12 01:14:28;;;;;;;;;;;;;;;11.79;57.89;99606.25;3522845;28;19927;-45
2021/05/12 01:16:10;;;;;;;;;;;;;;;11.77;58.12;99607.97;3524816;28;19932;-45
2021/05/12 01:17:52;;;;;;;;;;;;;;;11.70;58.39;99601.84;3525457;28;19966;-43
2021/05/12 01:19:34;;;;;;;;;;;;;;;11.66;58.18;99602.69;3524518;28;19938;-43
2021/05/12 01:21:16;;;;;;;;;;;;;;;11.63;58.52;99582.72;3525702;28;19935;-43
2021/05/12 01:22:57;;;;;;;;;;;;;;;11.59;58.32;99580.09;3524324;28;20427;-43
2021/05/12 01:24:39;;;;;;;;;;;;;;;11.54;58.50;99581.78;3525677;28;19953;-43
2021/05/12 01:26:21;;;;;;;;;;;;;;;11.50;58.85;99585.19;3524224;28;19931;-44
2021/05/12 01:28:02;;;;;;;;;;;;;;;11.46;58.98;99588.66;3525292;28;19935;-45
2021/05/12 01:29:44;;;;;;;;;;;;;;;11.40;59.22;99597.25;3524683;28;20412;-43
2021/05/12 01:31:28;;;;;;;;;;;;;;;11.36;59.69;99590.28;3524222;28;19939;-43
2021/05/12 01:33:10;;;;;;;;;;;;;;;11.28;59.29;99590.19;3511564;28;19928;-43
2021/05/12 01:34:51;;;;;;;;;;;;;;;11.20;59.71;99590.13;3520462;28;19927;-43
2021/05/12 01:36:33;;;;;;;;;;;;;;;11.13;59.98;99590.03;3525684;28;19934;-43
2021/05/12 01:38:15;;;;;;;;;;;;;;;11.08;59.66;99590.00;3524289;28;19951;-43
2021/05/12 01:39:56;;;;;;;;;;;;;;;11.04;60.17;99577.81;3524975;28;20404;-42
2021/05/12 01:41:37;;;;;;;;;;;;;;;11.00;60.47;99583.84;3524911;28;19928;-43
2021/05/12 01:43:19;;;;;;;;;;;;;;;10.97;60.63;99597.69;3524077;28;19927;-42
2021/05/12 01:45:03;;;;;;;;;;;;;;;10.94;60.50;99596.78;3525215;28;19975;-43
2021/05/12 01:46:46;;;;;;;;;;;;;;;10.90;60.91;99589.78;3524044;28;20030;-43
2021/05/12 01:48:28;;;;;;;;;;;;;;;10.86;60.86;99591.47;3524959;28;20396;-43
2021/05/12 01:50:11;;;;;;;;;;;;;;;10.80;60.68;99594.00;3524755;28;19928;-42
2021/05/12 01:51:52;;;;;;;;;;;;;;;10.76;60.95;99595.69;3524314;28;19967;-43
2021/05/12 01:53:33;;;;;;;;;;;;;;;10.69;61.14;99599.09;3525194;28;19927;-45
2021/05/12 01:55:15;;;;;;;;;;;;;;;10.62;61.51;99592.06;3524819;28;19978;-42
2021/05/12 01:56:56;;;;;;;;;;;;;;;10.58;61.39;99601.53;3525619;28;19985;-43
2021/05/12 01:58:38;;;;;;;;;;;;;;;10.55;61.87;99598.91;3523895;28;19931;-45
2021/05/12 02:00:20;;;;;;;;;;;;;;;10.50;61.81;99603.16;3525273;28;19934;-44
2021/05/12 02:02:01;;;;;;;;;;;;;;;10.45;61.80;99612.59;3523203;28;19989;-46
2021/05/12 02:03:42;;;;;;;;;;;;;;;10.42;61.57;99617.75;3524917;28;19927;-43
2021/05/12 02:05:26;;;;;;;;;;;;;;;10.40;61.87;99609.06;3523872;28;19928;-43
2021/05/12 02:07:08;;;;;;;;;;;;;;;10.38;62.04;99615.97;3523826;28;19932;-43
2021/05/12 02:08:49;;;;;;;;;;;;;;;10.36;62.33;99618.53;3525177;28;20342;-43
2021/05/12 02:10:30;;;;;;;;;;;;;;;10.35;62.54;99624.56;3524016;28;19981;-43
2021/05/12 02:12:11;;;;;;;;;;;;;;;10.33;62.48;99621.06;3524687;28;19931;-42
2021/05/12 02:13:52;;;;;;;;;;;;;;;10.29;62.86;99621.91;3522843;28;20244;-42
2021/05/12 02:15:33;;;;;;;;;;;;;;;10.25;63.12;99626.16;3524433;28;19978;-43
2021/05/12 02:17:14;;;;;;;;;;;;;;;10.22;63.31;99620.06;3524703;28;20596;-43
2021/05/12 02:18:56;;;;;;;;;;;;;;;10.17;63.58;99619.13;3524162;28;20346;-46
2021/05/12 02:20:37;;;;;;;;;;;;;;;10.13;63.50;99625.13;3525095;28;20131;-45
2021/05/12 02:22:19;;;;;;;;;;;;;;;10.07;63.72;99619.00;3523874;28;20017;-44
2021/05/12 02:24:00;;;;;;;;;;;;;;;10.05;63.54;99625.00;3525434;28;19967;-43
2021/05/12 02:25:42;;;;;;;;;;;;;;;10.00;63.49;99631.81;3524063;28;19989;-42
2021/05/12 02:27:23;;;;;;;;;;;;;;;9.98;63.95;99638.72;3524498;28;19970;-43
2021/05/12 02:29:04;;;;;;;;;;;;;;;9.96;63.94;99635.22;3524441;28;20508;-43
2021/05/12 02:30:46;;;;;;;;;;;;;;;9.94;63.85;99637.78;3524107;28;19932;-42
2021/05/12 02:32:27;;;;;;;;;;;;;;;9.94;64.00;99645.56;3524887;28;20005;-42
2021/05/12 02:34:08;;;;;;;;;;;;;;;9.92;64.21;99650.72;3524129;28;19973;-44
2021/05/12 02:35:50;;;;;;;;;;;;;;;9.90;64.29;99636.00;3525271;28;19950;-45
2021/05/12 02:37:31;;;;;;;;;;;;;;;9.87;64.40;99638.53;3523716;28;19980;-46
2021/05/12 02:39:13;;;;;;;;;;;;;;;9.85;64.60;99656.66;3524537;28;19986;-42
2021/05/12 02:40:54;;;;;;;;;;;;;;;9.84;64.40;99651.44;3524502;28;19981;-45
2021/05/12 02:42:35;;;;;;;;;;;;;;;9.83;64.59;99645.41;3523368;28;20286;-45
2021/05/12 02:44:16;;;;;;;;;;;;;;;9.81;64.66;99638.47;3524829;28;20015;-45
2021/05/12 02:45:58;;;;;;;;;;;;;;;9.79;64.84;99642.72;3523704;28;19986;-45
2021/05/12 02:47:39;;;;;;;;;;;;;;;9.77;65.13;99642.72;3525298;28;19931;-42
2021/05/12 02:49:20;;;;;;;;;;;;;;;9.75;65.26;99646.13;3523905;28;19958;-42
2021/05/12 02:51:02;;;;;;;;;;;;;;;9.72;65.32;99644.38;3524117;28;19955;-46
2021/05/12 02:52:43;;;;;;;;;;;;;;;9.69;65.57;99641.72;3524409;28;19928;-45
2021/05/12 02:54:25;;;;;;;;;;;;;;;9.65;65.46;99638.19;3524019;28;19928;-46
2021/05/12 02:56:06;;;;;;;;;;;;;;;9.65;66.06;99640.78;3523279;28;20404;-45
2021/05/12 02:57:47;;;;;;;;;;;;;;;9.63;65.94;99639.00;3523535;28;20409;-43
2021/05/12 02:59:28;;;;;;;;;;;;;;;9.63;65.94;99644.19;3524870;28;19928;-43
2021/05/12 03:01:09;;;;;;;;;;;;;;;9.64;66.04;99645.94;3523345;28;19974;-42
2021/05/12 03:02:51;;;;;;;;;;;;;;;9.63;66.12;99633.81;3524023;28;20400;-42
2021/05/12 03:04:32;;;;;;;;;;;;;;;9.63;66.12;99637.31;3524020;28;19964;-43
2021/05/12 03:06:13;;;;;;;;;;;;;;;9.64;66.35;99638.16;3523467;28;20441;-42
2021/05/12 03:07:55;;;;;;;;;;;;;;;9.64;65.94;99644.22;3524460;28;19978;-43
2021/05/12 03:09:37;;;;;;;;;;;;;;;9.63;65.90;99637.31;3523441;28;19927;-42
2021/05/12 03:11:18;;;;;;;;;;;;;;;9.65;65.84;99633.03;3524711;28;19976;-44
2021/05/12 03:13:01;;;;;;;;;;;;;;;9.66;66.09;99642.50;3522056;28;19935;-44
2021/05/12 03:14:42;;;;;;;;;;;;;;;9.69;65.86;99641.72;3511918;28;20419;-42
2021/05/12 03:16:23;;;;;;;;;;;;;;;9.71;65.99;99642.59;3524548;28;19970;-43
2021/05/12 03:18:05;;;;;;;;;;;;;;;9.72;65.82;99640.03;3523338;28;19927;-42
2021/05/12 03:19:46;;;;;;;;;;;;;;;9.73;66.31;99641.81;3524622;28;19954;-43
2021/05/12 03:21:28;;;;;;;;;;;;;;;9.74;66.11;99642.66;3523283;28;19970;-45
2021/05/12 03:23:10;;;;;;;;;;;;;;;9.75;66.07;99633.16;3524138;28;19967;-46
2021/05/12 03:24:51;;;;;;;;;;;;;;;9.79;65.92;99632.34;3524049;28;19928;-45
2021/05/12 03:26:32;;;;;;;;;;;;;;;9.82;65.55;99630.69;3523601;28;19935;-46
2021/05/12 03:28:13;;;;;;;;;;;;;;;9.85;65.42;99628.16;3524261;28;19975;-44
2021/05/12 03:29:54;;;;;;;;;;;;;;;9.88;65.55;99625.63;3523531;28;20278;-45
2021/05/12 03:31:36;;;;;;;;;;;;;;;9.90;65.56;99638.59;3524417;28;19973;-45
2021/05/12 03:33:17;;;;;;;;;;;;;;;9.94;65.29;99636.94;3523267;28;19927;-46
2021/05/12 03:34:58;;;;;;;;;;;;;;;9.96;65.32;99636.09;3523986;28;19932;-45
2021/05/12 03:36:39;;;;;;;;;;;;;;;10.00;64.88;99634.41;3524093;28;19952;-44
2021/05/12 03:38:21;;;;;;;;;;;;;;;10.01;65.07;99615.44;3523658;28;19967;-43
2021/05/12 03:40:03;;;;;;;;;;;;;;;10.06;64.90;99631.94;3524096;28;19978;-42
2021/05/12 03:41:44;;;;;;;;;;;;;;;10.08;64.71;99620.72;3523203;28;19928;-45
2021/05/12 03:43:25;;;;;;;;;;;;;;;10.12;64.81;99624.22;3524282;28;19971;-45
2021/05/12 03:45:07;;;;;;;;;;;;;;;10.16;64.84;99619.97;3523568;28;19975;-45
2021/05/12 03:46:48;;;;;;;;;;;;;;;10.19;64.40;99620.00;3524724;28;20076;-43
2021/05/12 03:48:31;;;;;;;;;;;;;;;10.21;64.04;99626.09;3524169;28;19950;-42
2021/05/12 03:50:12;;;;;;;;;;;;;;;10.23;63.92;99625.28;3523921;28;19980;-43
2021/05/12 03:51:55;;;;;;;;;;;;;;;10.26;64.00;99627.88;3524252;28;19932;-43
2021/05/12 03:53:37;;;;;;;;;;;;;;;10.29;64.03;99624.50;3524588;28;19982;-42
2021/05/12 03:55:18;;;;;;;;;;;;;;;10.34;64.45;99620.25;3512650;28;19964;-43
2021/05/12 03:56:59;;;;;;;;;;;;;;;10.39;64.03;99613.41;3522563;28;19963;-44
2021/05/12 03:58:40;;;;;;;;;;;;;;;10.45;63.62;99613.47;3527214;28;20411;-46
2021/05/12 04:00:22;;;;;;;;;;;;;;;10.53;63.89;99615.28;3525743;28;19928;-43
2021/05/12 04:02:03;;;;;;;;;;;;;;;10.59;63.24;99613.66;3526978;28;19944;-43
2021/05/12 04:03:44;;;;;;;;;;;;;;;10.63;63.19;99614.56;3526683;28;20384;-43
2021/05/12 04:05:26;;;;;;;;;;;;;;;10.68;63.18;99618.09;3526351;28;20005;-43
2021/05/12 04:07:07;;;;;;;;;;;;;;;10.71;62.73;99612.94;3527793;28;19935;-43
2021/05/12 04:08:48;;;;;;;;;;;;;;;10.76;62.67;99611.28;3525847;28;19939;-45
2021/05/12 04:10:30;;;;;;;;;;;;;;;10.82;62.89;99618.25;3526787;28;19971;-45
2021/05/12 04:12:11;;;;;;;;;;;;;;;10.85;62.40;99620.88;3525806;28;19938;-43
2021/05/12 04:13:52;;;;;;;;;;;;;;;10.88;62.19;99623.50;3525642;28;20399;-43
2021/05/12 04:15:33;;;;;;;;;;;;;;;10.92;62.23;99617.50;3526501;28;19951;-43
2021/05/12 04:17:14;;;;;;;;;;;;;;;10.98;62.05;99620.16;3525745;28;19931;-43
2021/05/12 04:18:55;;;;;;;;;;;;;;;11.04;61.99;99616.75;3526954;28;19928;-45
2021/05/12 04:20:37;;;;;;;;;;;;;;;11.10;61.36;99624.63;3526216;28;19911;-45
2021/05/12 04:22:18;;;;;;;;;;;;;;;11.15;61.41;99624.69;3527192;28;20361;-44
2021/05/12 04:24:00;;;;;;;;;;;;;;;11.19;61.25;99623.84;3526360;28;19928;-45
2021/05/12 04:25:41;;;;;;;;;;;;;;;11.22;60.92;99621.28;3526697;28;19932;-43
2021/05/12 04:27:22;;;;;;;;;;;;;;;11.30;61.59;99623.97;3527308;28;19936;-46
2021/05/12 04:29:04;;;;;;;;;;;;;;;11.35;61.33;99623.16;3525631;28;20347;-46
2021/05/12 04:30:45;;;;;;;;;;;;;;;11.42;60.98;99622.38;3526502;28;19927;-43
2021/05/12 04:32:26;;;;;;;;;;;;;;;11.51;61.23;99619.00;3525245;28;19966;-43
2021/05/12 04:34:07;;;;;;;;;;;;;;;11.55;60.47;99620.78;3527183;28;19932;-46
2021/05/12 04:35:49;;;;;;;;;;;;;;;11.57;60.34;99620.75;3526632;28;19928;-43
2021/05/12 04:37:30;;;;;;;;;;;;;;;11.59;60.66;99626.88;3525467;28;19927;-46
2021/05/12 04:39:12;;;;;;;;;;;;;;;11.58;60.44;99628.56;3526924;28;20028;-43
2021/05/12 04:40:53;;;;;;;;;;;;;;;11.63;60.61;99626.91;3523520;28;19928;-43
2021/05/12 04:42:34;;;;;;;;;;;;;;;11.68;60.44;99616.56;3526477;28;19971;-45
2021/05/12 04:44:15;;;;;;;;;;;;;;;11.77;60.38;99618.34;3525039;28;19928;-46
2021/05/12 04:45:57;;;;;;;;;;;;;;;11.84;60.47;99619.28;3527028;28;19975;-46
2021/05/12 04:47:38;;;;;;;;;;;;;;;11.90;59.84;99629.72;3526472;28;20018;-44
2021/05/12 04:49:19;;;;;;;;;;;;;;;11.95;59.78;99621.09;3525855;28;20304;-43
2021/05/12 04:51:00;;;;;;;;;;;;;;;12.03;58.85;99615.06;3524714;28;19974;-45
2021/05/12 04:52:41;;;;;;;;;;;;;;;12.08;59.21;99621.16;3526192;28;19987;-43
2021/05/12 04:54:23;;;;;;;;;;;;;;;12.12;58.98;99616.00;3512887;28;19928;-46
2021/05/12 04:56:04;;;;;;;;;;;;;;;12.17;59.07;99616.91;3521854;28;19928;-45
2021/05/12 04:57:46;;;;;;;;;;;;;;;12.23;59.05;99618.69;3526689;28;19959;-43
2021/05/12 04:59:27;;;;;;;;;;;;;;;12.27;58.70;99614.34;3526008;28;19928;-46
2021/05/12 05:01:08;;;;;;;;;;;;;;;12.32;58.65;99617.84;3525835;28;19981;-43
2021/05/12 05:02:49;;;;;;;;;;;;;;;12.36;58.75;99625.69;3526689;28;19928;-43
2021/05/12 05:04:31;;;;;;;;;;;;;;;12.41;58.23;99620.50;3524788;28;19936;-43
2021/05/12 05:06:12;;;;;;;;;;;;;;;12.43;58.55;99623.97;3526973;28;19928;-43
2021/05/12 05:07:53;;;;;;;;;;;;;;;12.50;58.48;99627.50;3524718;28;20392;-44
2021/05/12 05:09:36;;;;;;;;;;;;;;;12.56;58.13;99628.41;3527013;28;19927;-43
2021/05/12 05:11:17;;;;;;;;;;;;;;;12.56;58.25;99631.00;3525828;28;19977;-43
2021/05/12 05:12:58;;;;;;;;;;;;;;;12.55;57.93;99631.84;3525749;28;19932;-43
2021/05/12 05:14:40;;;;;;;;;;;;;;;12.56;57.68;99619.72;3526200;28;20299;-46
2021/05/12 05:16:21;;;;;;;;;;;;;;;12.58;58.07;99623.22;3525657;28;19977;-44
2021/05/12 05:18:03;;;;;;;;;;;;;;;12.65;58.00;99627.56;3526834;28;19978;-47
2021/05/12 05:19:44;;;;;;;;;;;;;;;12.69;57.99;99629.31;3525571;28;19932;-46
2021/05/12 05:21:26;;;;;;;;;;;;;;;12.75;57.55;99621.56;3526167;28;19934;-43
2021/05/12 05:23:07;;;;;;;;;;;;;;;12.82;57.84;99625.03;3525467;28;19935;-45
2021/05/12 05:24:49;;;;;;;;;;;;;;;12.88;57.14;99627.66;3526391;28;19932;-46
2021/05/12 05:26:30;;;;;;;;;;;;;;;12.93;57.40;99625.97;3525839;28;19957;-46
2021/05/12 05:28:11;;;;;;;;;;;;;;;13.03;57.48;99628.59;3526129;28;19928;-43
2021/05/12 05:29:53;;;;;;;;;;;;;;;13.15;57.53;99628.63;3526623;28;19935;-43
2021/05/12 05:31:34;;;;;;;;;;;;;;;13.24;56.93;99633.88;3525629;28;20003;-46
2021/05/12 05:33:15;;;;;;;;;;;;;;;13.30;56.38;99620.88;3526841;28;19928;-44
2021/05/12 05:34:56;;;;;;;;;;;;;;;13.29;56.28;99623.47;3525269;28;20404;-45
2021/05/12 05:36:40;;;;;;;;;;;;;;;13.28;56.38;99627.81;3526140;28;19932;-45
2021/05/12 05:38:21;;;;;;;;;;;;;;;13.28;56.46;99622.59;3526675;28;19935;-46
2021/05/12 05:40:04;;;;;;;;;;;;;;;13.35;56.16;99618.25;3525520;28;20414;-46
2021/05/12 05:41:45;;;;;;;;;;;;;;;13.44;56.37;99622.59;3525554;28;20368;-44
2021/05/12 05:43:27;;;;;;;;;;;;;;;13.44;56.72;99625.22;3524742;28;19966;-43
2021/05/12 05:45:08;;;;;;;;;;;;;;;13.40;55.71;99620.88;3527363;28;20039;-44
2021/05/12 05:46:49;;;;;;;;;;;;;;;13.41;56.02;99618.28;3525229;28;19931;-43
2021/05/12 05:48:30;;;;;;;;;;;;;;;13.42;55.21;99621.75;3525431;28;19935;-43
2021/05/12 05:50:12;;;;;;;;;;;;;;;13.45;55.79;99621.75;3525962;28;20039;-44
2021/05/12 05:51:53;;;;;;;;;;;;;;;13.47;55.72;99626.09;3524774;28;20433;-43
2021/05/12 05:53:35;;;;;;;;;;;;;;;13.56;55.54;99619.16;3524877;28;20009;-45
2021/05/12 05:55:17;;;;;;;;;;;;;;;13.68;55.43;99620.03;3524691;28;20071;-45
2021/05/12 05:57:04;;;;;;;;;;;;;;;13.81;54.46;99617.41;3525846;28;20002;-45
2021/05/12 05:58:45;;;;;;;;;;;;;;;13.97;54.84;99603.50;3524126;28;19953;-44
2021/05/12 06:00:26;;;;;;;;;;;;;;;14.11;54.74;99600.84;3524427;28;20549;-44
2021/05/12 06:02:08;;;;;;;;;;;;;;;14.21;54.51;99605.19;3525386;28;19928;-47
2021/05/12 06:03:49;;;;;;;;;;;;;;;14.21;53.66;99614.78;3524034;28;19935;-47
2021/05/12 06:05:30;;;;;;;;;;;;;;;14.19;53.51;99616.50;3525582;28;19928;-46
2021/05/12 06:07:11;;;;;;;;;;;;;;;14.24;53.70;99609.56;3524467;28;19974;-44
2021/05/12 06:08:53;;;;;;;;;;;;;;;14.32;53.42;99610.41;3525570;28;19966;-48
2021/05/12 06:10:35;;;;;;;;;;;;;;;14.28;53.07;99609.53;3524112;28;19928;-47
2021/05/12 06:12:16;;;;;;;;;;;;;;;14.19;53.04;99625.19;3525392;28;19927;-48
2021/05/12 06:13:57;;;;;;;;;;;;;;;14.10;52.63;99601.75;3515296;28;20317;-44
2021/05/12 06:15:40;;;;;;;;;;;;;;;14.04;53.52;99606.97;3514838;28;19931;-44
2021/05/12 06:17:21;;;;;;;;;;;;;;;14.09;53.94;99603.50;3525540;28;19935;-46
2021/05/12 06:19:02;;;;;;;;;;;;;;;14.24;52.79;99612.16;3524190;28;19932;-46
2021/05/12 06:20:44;;;;;;;;;;;;;;;14.36;52.97;99611.28;3525501;28;19935;-50
2021/05/12 06:22:25;;;;;;;;;;;;;;;14.46;53.34;99602.53;3524602;28;19928;-44
2021/05/12 06:24:06;;;;;;;;;;;;;;;14.63;52.13;99602.50;3524582;28;19950;-45
2021/05/12 06:25:50;;;;;;;;;;;;;;;14.79;51.75;99603.31;3525043;28;20451;-46
2021/05/12 06:27:31;;;;;;;;;;;;;;;14.80;51.13;99597.19;3523925;28;19967;-44
2021/05/12 06:29:13;;;;;;;;;;;;;;;14.79;52.08;99604.16;3526089;28;19935;-48
2021/05/12 06:30:54;;;;;;;;;;;;;;;14.86;51.42;99604.16;3524868;28;19927;-45
2021/05/12 06:32:35;;;;;;;;;;;;;;;14.80;50.83;99599.78;3524029;28;20384;-44
2021/05/12 06:34:16;;;;;;;;;;;;;;;14.65;51.15;99599.00;3524922;28;19928;-44
2021/05/12 06:35:57;;;;;;;;;;;;;;;14.64;51.13;99594.66;3523708;28;19982;-44
2021/05/12 06:37:39;;;;;;;;;;;;;;;14.80;51.81;99603.31;3524694;28;19927;-44
2021/05/12 06:39:20;;;;;;;;;;;;;;;14.78;50.71;99610.28;3524212;28;19928;-46
2021/05/12 06:41:02;;;;;;;;;;;;;;;14.68;51.08;99602.47;3524766;28;20022;-45
2021/05/12 06:42:43;;;;;;;;;;;;;;;14.58;50.42;99610.34;3523437;28;19932;-43
2021/05/12 06:44:24;;;;;;;;;;;;;;;14.46;50.41;99611.28;3523981;28;19936;-47
2021/05/12 06:46:05;;;;;;;;;;;;;;;14.39;50.84;99606.06;3524773;28;19928;-47
2021/05/12 06:47:53;;;;;;;;;;;;;;;14.34;51.03;99603.47;3523946;28;20291;-48
2021/05/12 06:49:34;;;;;;;;;;;;;;;14.35;51.44;99601.72;3511007;28;19928;-45
2021/05/12 06:51:16;;;;;;;;;;;;;;;14.41;52.05;99594.75;3520545;28;19935;-46
2021/05/12 06:52:58;;;;;;;;;;;;;;;14.49;51.44;99609.53;3524760;28;19927;-47
2021/05/12 06:54:39;;;;;;;;;;;;;;;14.67;51.52;99598.13;3522799;28;20423;-44
2021/05/12 06:56:21;;;;;;;;;;;;;;;14.81;50.73;99598.94;3524162;28;19928;-44
2021/05/12 06:58:02;;;;;;;;;;;;;;;14.91;49.23;99598.03;3524605;28;19981;-43
2021/05/12 06:59:43;;;;;;;;;;;;;;;14.99;49.74;99598.84;3523659;28;20300;-47
2021/05/12 07:01:24;;;;;;;;;;;;;;;15.23;49.80;99597.81;3510736;28;20019;-47
2021/05/12 07:03:05;;;;;;;;;;;;;;;15.52;49.60;99595.88;3519629;28;20527;-46
2021/05/12 07:04:47;;;;;;;;;;;;;;;15.67;47.20;99600.16;3524601;28;20389;-46
2021/05/12 07:06:28;;;;;;;;;;;;;;;15.60;46.38;99601.97;3523705;28;19928;-44
2021/05/12 07:08:09;;;;;;;;;;;;;;;15.56;46.97;99595.84;3524166;28;19934;-43
2021/05/12 07:09:50;;;;;;;;;;;;;;;15.54;46.97;99592.41;3524422;28;19976;-49
2021/05/12 07:11:32;;;;;;;;;;;;;;;15.45;46.50;99595.06;3523642;28;19928;-43
2021/05/12 07:13:13;;;;;;;;;;;;;;;15.27;47.47;99597.81;3523040;28;19935;-44
2021/05/12 07:14:54;;;;;;;;;;;;;;;15.16;47.95;99592.66;3523586;28;19936;-46
2021/05/12 07:16:36;;;;;;;;;;;;;;;15.10;47.97;99588.34;3524430;28;20419;-47
2021/05/12 07:18:17;;;;;;;;;;;;;;;15.14;48.44;99595.28;3523820;28;19927;-43
2021/05/12 07:19:58;;;;;;;;;;;;;;;15.30;47.55;99593.44;3523433;28;19932;-43
2021/05/12 07:21:39;;;;;;;;;;;;;;;15.33;46.48;99596.03;3523765;28;20403;-48
2021/05/12 07:23:21;;;;;;;;;;;;;;;15.29;47.07;99593.44;3523398;28;20312;-44
2021/05/12 07:25:03;;;;;;;;;;;;;;;15.32;47.92;99596.03;3524941;28;19944;-46
2021/05/12 07:26:45;;;;;;;;;;;;;;;15.35;47.27;99590.78;3523010;28;19934;-47
2021/05/12 07:28:26;;;;;;;;;;;;;;;15.33;47.16;99592.53;3525905;28;19928;-46
2021/05/12 07:30:08;;;;;;;;;;;;;;;15.32;46.72;99596.91;3525842;28;19967;-44
2021/05/12 07:31:49;;;;;;;;;;;;;;;15.26;46.86;99601.28;3526592;28;19967;-47
2021/05/12 07:33:30;;;;;;;;;;;;;;;15.17;47.15;99599.59;3526679;28;20377;-43
2021/05/12 07:35:12;;;;;;;;;;;;;;;15.14;47.42;99597.88;3526639;28;20213;-47
2021/05/12 07:36:53;;;;;;;;;;;;;;;15.16;46.83;99590.91;3526268;28;19939;-44
2021/05/12 07:38:36;;;;;;;;;;;;;;;15.18;46.82;99596.97;3525699;28;19928;-43
2021/05/12 07:40:17;;;;;;;;;;;;;;;15.22;46.78;99592.59;3527114;28;19928;-43
2021/05/12 07:42:02;;;;;;;;;;;;;;;15.23;46.96;99591.75;3525741;28;19932;-43
2021/05/12 07:43:45;;;;;;;;;;;;;;;15.28;46.76;99594.34;3526709;28;19932;-43
2021/05/12 07:45:26;;;;;;;;;;;;;;;15.31;46.94;99591.69;3526543;28;19975;-43
2021/05/12 07:47:18;;;;;;;;;;;;;;;15.33;46.98;99593.41;3525610;28;19976;-43
2021/05/12 07:48:59;;;;;;;;;;;;;;;15.37;46.79;99597.72;3526653;28;20316;-43
2021/05/12 07:50:41;;;;;;;;;;;;;;;15.31;46.59;99596.91;3525514;28;20342;-43
2021/05/12 07:52:22;;;;;;;;;;;;;;;15.25;47.25;99596.97;3526402;28;20395;-46
2021/05/12 07:54:03;;;;;;;;;;;;;;;15.24;47.05;99596.06;3525716;28;19931;-46
2021/05/12 07:55:44;;;;;;;;;;;;;;;15.26;48.02;99590.84;3525789;28;19975;-46
2021/05/12 07:57:26;;;;;;;;;;;;;;;15.30;47.41;99603.88;3526500;28;19935;-46
2021/05/12 07:59:07;;;;;;;;;;;;;;;15.22;47.26;99603.94;3525592;28;19928;-46
2021/05/12 08:00:48;;;;;;;;;;;;;;;15.12;47.52;99602.25;3526681;28;19986;-43
2021/05/12 08:02:30;;;;;;;;;;;;;;;14.98;47.26;99598.88;3525251;28;19963;-42
2021/05/12 08:04:11;;;;;;;;;;;;;;;14.91;48.01;99598.03;3526483;28;19936;-46
2021/05/12 08:05:52;;;;;;;;;;;;;;;14.90;48.03;99592.81;3526263;28;19928;-43
2021/05/12 08:07:33;;;;;;;;;;;;;;;14.91;48.71;99599.78;3526123;28;19927;-47
2021/05/12 08:09:14;;;;;;;;;;;;;;;14.93;47.72;99591.03;3526046;28;19927;-46
2021/05/12 08:10:55;;;;;;;;;;;;;;;14.90;47.82;99590.19;3525455;28;20008;-46
2021/05/12 08:12:37;;;;;;;;;;;;;;;14.89;48.51;99591.94;3512574;28;19970;-46
2021/05/12 08:14:18;;;;;;;;;;;;;;;14.91;48.35;99598.03;3521197;28;19932;-43
2021/05/12 08:16:00;;;;;;;;;;;;;;;14.93;48.31;99592.78;3526582;28;19992;-42
2021/05/12 08:17:41;;;;;;;;;;;;;;;14.92;48.59;99586.69;3525177;28;20024;-46
2021/05/12 08:19:22;;;;;;;;;;;;;;;14.96;48.88;99590.13;3526473;28;19960;-42
2021/05/12 08:21:05;;;;;;;;;;;;;;;15.03;48.51;99573.59;3525882;28;19928;-42
2021/05/12 08:22:46;;;;;;;;;;;;;;;15.10;47.88;99587.44;3525264;28;19927;-46
2021/05/12 08:24:28;;;;;;;;;;;;;;;15.11;48.09;99584.84;3526286;28;20408;-45
2021/05/12 08:26:10;;;;;;;;;;;;;;;15.12;48.11;99575.28;3525528;28;19931;-42
2021/05/12 08:27:54;;;;;;;;;;;;;;;15.06;48.26;99578.75;3526719;28;20341;-46
2021/05/12 08:29:36;;;;;;;;;;;;;;;14.97;48.65;99590.13;3524469;28;19928;-42
2021/05/12 08:31:18;;;;;;;;;;;;;;;14.91;48.26;99577.13;3526057;28;19935;-47
2021/05/12 08:33:00;;;;;;;;;;;;;;;14.90;48.36;99579.75;3525124;28;19941;-48
2021/05/12 08:34:41;;;;;;;;;;;;;;;14.90;48.58;99574.50;3525120;28;19928;-46
2021/05/12 08:36:22;;;;;;;;;;;;;;;14.86;48.58;99571.06;3527009;28;20285;-46
2021/05/12 08:38:03;;;;;;;;;;;;;;;14.78;48.93;99565.00;3525055;28;19962;-42
2021/05/12 08:39:44;;;;;;;;;;;;;;;14.78;49.77;99572.81;3526193;28;20332;-42
2021/05/12 08:41:26;;;;;;;;;;;;;;;14.89;50.18;99570.16;3524710;28;19927;-42
2021/05/12 08:43:07;;;;;;;;;;;;;;;15.04;49.56;99573.53;3525227;28;19934;-42
2021/05/12 08:44:49;;;;;;;;;;;;;;;15.22;49.59;99561.25;3525821;28;19928;-44
2021/05/12 08:46:31;;;;;;;;;;;;;;;15.35;48.64;99560.28;3525082;28;20071;-46
2021/05/12 08:48:13;;;;;;;;;;;;;;;15.45;48.40;99562.81;3512069;28;20015;-48
2021/05/12 08:49:55;;;;;;;;;;;;;;;15.53;48.24;99564.50;3521547;28;19927;-43